Giurgiu, Romania
Current Conditions -  °F | °C
As of 2:00 PM on Wednesday 26 Nov 2014 (Local Time) from LRBS Reporting Station
Overcast Overcast  
Wind Chill: 28°   Ceiling: 900
Heat Index: 28°   Visibility: 4mi
Dew Point: 28°   Wind: 3mph
Humidity: 100%   Direction: 80°E
Pressure: 30.36"   Gusts: NA
Location:  43.9°N, 25.97°E
Report Text: LRBS 261100Z 08003KT 050V110 7000 OVC009 M02/M02 Q1028 NOSIG
Loading
Personal Weather Stations






























Interactive Weather Map New forecast layout! Learn more

10-Day Weather Forecast

Advertisements
Track Severe Weather on mobile